Time;durP1;ratioP1;P1;durP2;ratioP2;P2;SDS_P1;SDS_P2;PMS_P1;PMS_P2;Temp;Humidity;BMP_temperature;BMP_pressure;BME280_temperature;BME280_humidity;BME280_pressure;Samples;Min_cycle;Max_cycle;Signal;HPM_P1;HPM_P2
2023/05/27 00:02:06;;;;;;;7.65;2.80;;;11.00;99.90;;;;;;5082846;28;20102;-42
2023/05/27 00:04:34;;;;;;;9.55;2.78;;;11.00;99.90;;;;;;5081070;28;20596;-43
2023/05/27 00:07:00;;;;;;;7.32;2.30;;;11.00;99.90;;;;;;5082038;28;20418;-41
2023/05/27 00:09:26;;;;;;;7.03;2.40;;;11.00;99.90;;;;;;5080915;28;20510;-43
2023/05/27 00:11:51;;;;;;;11.23;3.05;;;11.00;99.90;;;;;;5081257;28;20028;-37
2023/05/27 00:14:17;;;;;;;6.15;2.55;;;10.90;99.90;;;;;;5082368;28;20824;-44
2023/05/27 00:16:43;;;;;;;7.75;2.60;;;10.90;99.90;;;;;;5082327;28;20024;-41
2023/05/27 00:19:08;;;;;;;9.90;2.72;;;10.90;99.90;;;;;;5082328;28;20032;-43
2023/05/27 00:21:34;;;;;;;7.85;2.47;;;10.90;99.90;;;;;;5082093;28;20020;-41
2023/05/27 00:24:00;;;;;;;7.47;2.88;;;10.90;99.90;;;;;;5083174;28;20016;-39
2023/05/27 00:26:26;;;;;;;10.05;2.92;;;10.80;99.90;;;;;;5081259;28;20028;-41
2023/05/27 00:28:51;;;;;;;10.80;2.70;;;10.80;99.90;;;;;;5082087;28;20027;-43
2023/05/27 00:31:17;;;;;;;8.63;2.50;;;10.80;99.90;;;;;;5082076;28;20446;-41
2023/05/27 00:33:43;;;;;;;10.57;2.90;;;10.80;99.90;;;;;;5080649;28;20502;-41
2023/05/27 00:36:09;;;;;;;14.07;3.33;;;10.70;99.90;;;;;;5082307;28;20031;-40
2023/05/27 00:38:35;;;;;;;6.43;2.88;;;10.80;99.90;;;;;;5081396;28;20032;-43
2023/05/27 00:41:03;;;;;;;9.63;2.72;;;10.70;99.90;;;;;;5082124;28;20111;-41
2023/05/27 00:43:32;;;;;;;8.73;3.00;;;10.70;99.90;;;;;;5081609;28;20476;-40
2023/05/27 00:45:57;;;;;;;12.95;3.00;;;10.60;99.90;;;;;;5081974;28;20380;-41
2023/05/27 00:48:23;;;;;;;7.63;2.78;;;10.60;99.90;;;;;;5080293;28;20047;-42
2023/05/27 00:50:48;;;;;;;8.13;2.78;;;10.50;99.90;;;;;;5082236;28;20420;-41
2023/05/27 00:53:16;;;;;;;11.57;3.88;;;10.50;99.90;;;;;;5080827;28;20059;-41
2023/05/27 00:55:42;;;;;;;7.65;2.67;;;10.50;99.90;;;;;;5082185;28;20039;-42
2023/05/27 00:58:09;;;;;;;10.45;3.08;;;10.50;99.90;;;;;;5082304;28;20744;-41
2023/05/27 01:00:37;;;;;;;9.27;3.03;;;10.40;99.90;;;;;;5081176;28;20024;-39
2023/05/27 01:03:03;;;;;;;8.98;2.92;;;10.40;99.90;;;;;;5081911;28;20089;-41
2023/05/27 01:05:29;;;;;;;8.10;3.05;;;10.40;99.90;;;;;;5080968;28;20564;-41
2023/05/27 01:08:20;;;;;;;9.52;3.55;;;10.40;99.90;;;;;;5081501;28;20066;-42
2023/05/27 01:10:59;;;;;;;9.45;3.10;;;10.30;99.90;;;;;;5072118;28;20028;-41
2023/05/27 01:13:46;;;;;;;8.27;3.00;;;10.30;99.90;;;;;;5080779;28;20040;-39
2023/05/27 01:16:17;;;;;;;6.82;2.95;;;10.30;99.90;;;;;;5072011;28;20028;-41
2023/05/27 01:18:44;;;;;;;9.45;3.00;;;10.20;99.90;;;;;;5079918;28;20054;-43
2023/05/27 01:21:16;;;;;;;12.25;3.42;;;10.20;99.90;;;;;;5080540;28;20028;-42
2023/05/27 01:23:42;;;;;;;11.27;3.00;;;10.20;99.90;;;;;;5080426;28;20103;-40
2023/05/27 01:26:08;;;;;;;10.15;3.42;;;10.20;99.90;;;;;;5081686;28;20038;-41
2023/05/27 01:28:34;;;;;;;8.18;2.83;;;10.20;99.90;;;;;;5079895;28;20463;-41
2023/05/27 01:31:16;;;;;;;9.75;3.08;;;10.10;99.90;;;;;;5082069;28;20104;-41
2023/05/27 01:33:49;;;;;;;9.02;3.30;;;10.10;99.90;;;;;;5081557;28;20023;-41
2023/05/27 01:36:20;;;;;;;9.10;2.72;;;10.10;99.90;;;;;;5080312;28;20019;-40
2023/05/27 01:38:48;;;;;;;8.00;3.00;;;10.10;99.90;;;;;;5081363;28;20028;-41
2023/05/27 01:41:15;;;;;;;9.20;3.33;;;10.10;99.90;;;;;;5080942;28;20046;-41
2023/05/27 01:43:42;;;;;;;5.88;2.55;;;10.10;99.90;;;;;;5081058;28;20134;-41
2023/05/27 01:46:08;;;;;;;5.80;2.38;;;10.00;99.90;;;;;;5085382;28;20028;-40
2023/05/27 01:48:34;;;;;;;6.68;2.38;;;10.00;99.90;;;;;;5085587;28;20036;-41
2023/05/27 01:50:59;;;;;;;8.73;2.83;;;10.00;99.90;;;;;;5084815;28;20092;-42
2023/05/27 01:53:25;;;;;;;11.60;3.33;;;10.00;99.90;;;;;;5080094;28;20028;-41
2023/05/27 01:55:50;;;;;;;9.90;3.03;;;9.90;99.90;;;;;;5084975;28;20028;-41
2023/05/27 01:58:16;;;;;;;6.55;3.00;;;9.90;99.90;;;;;;5084416;28;20076;-43
2023/05/27 02:00:41;;;;;;;8.85;2.90;;;9.90;99.90;;;;;;5085095;28;20032;-40
2023/05/27 02:03:07;;;;;;;9.80;3.05;;;9.90;99.90;;;;;;5085579;28;20032;-40
2023/05/27 02:05:33;;;;;;;10.63;3.00;;;9.90;99.90;;;;;;5085159;28;20797;-39
2023/05/27 02:07:58;;;;;;;9.07;2.92;;;9.80;99.90;;;;;;5085674;28;20028;-41
2023/05/27 02:10:24;;;;;;;7.53;2.63;;;9.80;99.90;;;;;;5083976;28;20073;-42
2023/05/27 02:12:49;;;;;;;7.20;2.40;;;9.80;99.90;;;;;;5085466;28;20081;-40
2023/05/27 02:15:15;;;;;;;8.00;2.50;;;9.80;99.90;;;;;;5085157;28;20564;-43
2023/05/27 02:17:41;;;;;;;13.07;3.10;;;9.80;99.90;;;;;;5084192;28;20042;-41
2023/05/27 02:20:09;;;;;;;5.25;2.60;;;9.70;99.90;;;;;;5085395;28;20525;-41
2023/05/27 02:22:35;;;;;;;8.15;2.75;;;9.70;99.90;;;;;;5083380;28;20035;-42
2023/05/27 02:25:00;;;;;;;9.70;3.35;;;9.70;99.90;;;;;;5083398;28;20024;-42
2023/05/27 02:27:26;;;;;;;11.43;3.28;;;9.70;99.90;;;;;;5083087;28;20855;-44
2023/05/27 02:29:51;;;;;;;8.55;2.90;;;9.60;99.90;;;;;;5084240;28;20691;-41
2023/05/27 02:32:17;;;;;;;10.82;2.97;;;9.60;99.90;;;;;;5082918;28;20890;-41
2023/05/27 02:34:45;;;;;;;9.80;3.05;;;9.50;99.90;;;;;;5084792;28;20031;-42
2023/05/27 02:37:13;;;;;;;10.23;3.17;;;9.50;99.90;;;;;;5084068;28;20763;-42
2023/05/27 02:39:40;;;;;;;8.55;3.63;;;9.50;99.90;;;;;;5083387;28;20016;-43
2023/05/27 02:42:06;;;;;;;9.30;3.78;;;9.40;99.90;;;;;;5085122;28;20093;-40
2023/05/27 02:44:38;;;;;;;9.88;3.33;;;9.40;99.90;;;;;;5083915;28;20028;-39
2023/05/27 02:47:03;;;;;;;9.07;3.00;;;9.40;99.90;;;;;;5083968;28;20485;-42
2023/05/27 02:49:29;;;;;;;6.13;2.67;;;9.40;99.90;;;;;;5083513;28;20020;-41
2023/05/27 02:51:54;;;;;;;7.90;2.78;;;9.40;99.90;;;;;;5084431;28;20827;-42
2023/05/27 02:54:20;;;;;;;9.60;3.17;;;9.30;99.90;;;;;;5083421;28;20530;-42
2023/05/27 02:56:45;;;;;;;9.05;3.72;;;9.30;99.90;;;;;;5084252;28;20036;-40
2023/05/27 02:59:11;;;;;;;7.57;3.17;;;9.30;99.90;;;;;;5084565;28;20482;-42
2023/05/27 03:01:39;;;;;;;9.43;3.35;;;9.20;99.90;;;;;;5083115;28;20020;-42
2023/05/27 03:04:05;;;;;;;9.50;3.70;;;9.20;99.90;;;;;;5081388;28;20031;-39
2023/05/27 03:06:31;;;;;;;7.10;3.17;;;9.20;99.90;;;;;;5083643;28;20020;-42
2023/05/27 03:08:57;;;;;;;11.23;3.83;;;9.20;99.90;;;;;;5085084;28;20023;-40
2023/05/27 03:11:22;;;;;;;10.13;2.95;;;9.20;99.90;;;;;;5084673;28;20043;-42
2023/05/27 03:13:48;;;;;;;8.05;2.90;;;9.20;99.90;;;;;;5084231;28;20024;-41
2023/05/27 03:16:14;;;;;;;10.93;3.13;;;9.10;99.90;;;;;;5084655;28;20045;-41
2023/05/27 03:18:39;;;;;;;7.35;3.30;;;9.10;99.90;;;;;;5082913;28;20058;-41
2023/05/27 03:21:05;;;;;;;12.30;2.80;;;9.10;99.90;;;;;;5083329;28;20066;-36
2023/05/27 03:23:30;;;;;;;7.70;3.00;;;9.10;99.90;;;;;;5083413;28;20058;-39
2023/05/27 03:25:56;;;;;;;7.43;2.75;;;9.00;99.90;;;;;;5083453;28;20472;-40
2023/05/27 03:28:21;;;;;;;6.85;2.85;;;9.00;99.90;;;;;;5082545;28;20028;-40
2023/05/27 03:30:48;;;;;;;6.97;2.72;;;9.00;99.90;;;;;;5083490;28;20875;-39
2023/05/27 03:33:14;;;;;;;6.32;2.50;;;9.00;99.90;;;;;;5082321;28;20036;-37
2023/05/27 03:35:39;;;;;;;8.55;3.45;;;9.00;99.90;;;;;;5081751;28;20031;-42
2023/05/27 03:38:05;;;;;;;8.45;3.00;;;9.00;99.90;;;;;;5083120;28;20043;-38
2023/05/27 03:40:30;;;;;;;9.82;3.78;;;9.00;99.90;;;;;;5082687;28;20057;-41
2023/05/27 03:42:56;;;;;;;8.20;3.30;;;9.00;99.90;;;;;;5082942;28;20016;-37
2023/05/27 03:45:22;;;;;;;11.57;3.10;;;9.00;99.90;;;;;;5082624;28;20032;-42
2023/05/27 03:47:47;;;;;;;7.97;3.03;;;9.00;99.90;;;;;;5082637;28;20156;-41
2023/05/27 03:50:13;;;;;;;6.35;2.38;;;9.00;99.90;;;;;;5082996;28;20047;-39
2023/05/27 03:52:38;;;;;;;4.20;2.35;;;9.00;99.90;;;;;;5082851;28;20690;-38
2023/05/27 03:55:11;;;;;;;7.05;2.70;;;9.00;99.90;;;;;;5082600;28;20027;-42
2023/05/27 03:57:39;;;;;;;8.27;2.80;;;9.00;99.90;;;;;;5061120;28;20755;-41
2023/05/27 04:00:08;;;;;;;8.77;3.13;;;9.00;99.90;;;;;;5077320;28;20131;-40
2023/05/27 04:02:34;;;;;;;6.43;2.55;;;9.00;99.90;;;;;;5082165;28;20039;-41
2023/05/27 04:05:00;;;;;;;7.05;2.83;;;9.00;99.90;;;;;;5082536;28;20446;-40
2023/05/27 04:07:28;;;;;;;6.80;2.70;;;9.00;99.90;;;;;;5082222;28;20097;-41
2023/05/27 04:09:54;;;;;;;10.95;3.40;;;9.00;99.90;;;;;;5082234;28;20073;-41
2023/05/27 04:12:20;;;;;;;9.68;2.90;;;9.00;99.90;;;;;;5082463;28;20123;-34
2023/05/27 04:14:46;;;;;;;9.65;3.22;;;9.00;99.90;;;;;;5082261;28;20529;-41
2023/05/27 04:17:13;;;;;;;8.52;2.65;;;9.00;99.90;;;;;;5082410;28;20032;-40
2023/05/27 04:19:38;;;;;;;9.13;3.13;;;9.00;99.90;;;;;;5082651;28;20024;-38
2023/05/27 04:22:04;;;;;;;7.53;2.67;;;9.00;99.90;;;;;;5082987;28;20071;-39
2023/05/27 04:24:30;;;;;;;10.02;3.40;;;9.10;99.90;;;;;;5081280;28;20030;-41
2023/05/27 04:26:55;;;;;;;10.82;3.30;;;9.10;99.90;;;;;;5082646;28;20058;-40
2023/05/27 04:29:22;;;;;;;6.30;2.33;;;9.10;99.90;;;;;;5082804;28;20051;-39
2023/05/27 04:31:48;;;;;;;7.70;3.28;;;9.10;99.90;;;;;;5081086;28;20020;-39
2023/05/27 04:34:13;;;;;;;6.72;2.35;;;9.20;99.90;;;;;;5082903;28;20031;-36
2023/05/27 04:36:39;;;;;;;12.20;3.28;;;9.20;99.90;;;;;;5081664;28;20062;-40
2023/05/27 04:39:04;;;;;;;7.80;2.95;;;9.20;99.90;;;;;;5082217;28;20032;-40
2023/05/27 04:41:32;;;;;;;8.40;3.38;;;9.20;99.90;;;;;;5080862;28;20024;-40
2023/05/27 04:44:00;;;;;;;10.23;3.22;;;9.20;99.90;;;;;;5081609;28;20024;-42
2023/05/27 04:46:26;;;;;;;9.63;3.28;;;9.30;99.90;;;;;;5080116;28;20031;-41
2023/05/27 04:48:55;;;;;;;12.23;2.97;;;9.30;99.90;;;;;;5081815;28;20042;-42
2023/05/27 04:51:22;;;;;;;8.77;3.05;;;9.30;99.90;;;;;;5081629;28;20772;-40
2023/05/27 04:53:48;;;;;;;11.07;3.35;;;9.40;99.90;;;;;;5081479;28;20565;-40
2023/05/27 04:56:15;;;;;;;7.25;2.85;;;9.40;99.90;;;;;;5081240;28;20044;-42
2023/05/27 04:58:43;;;;;;;9.70;3.72;;;9.40;99.90;;;;;;5081736;28;20043;-42
2023/05/27 05:01:20;;;;;;;8.38;3.42;;;9.50;99.90;;;;;;5081556;28;20051;-42
2023/05/27 05:03:52;;;;;;;8.02;2.65;;;9.50;99.90;;;;;;5080984;28;20189;-42
2023/05/27 05:06:22;;;;;;;7.40;2.42;;;9.50;99.90;;;;;;5081475;28;20020;-40
2023/05/27 05:08:48;;;;;;;8.48;2.90;;;9.60;99.90;;;;;;5081375;28;20039;-37
2023/05/27 05:11:14;;;;;;;9.52;3.10;;;9.60;99.90;;;;;;5082229;28;20050;-41
2023/05/27 05:13:40;;;;;;;9.95;2.85;;;9.60;99.90;;;;;;5081011;28;20032;-42
2023/05/27 05:16:06;;;;;;;8.30;2.70;;;9.70;99.90;;;;;;5081308;28;20050;-41
2023/05/27 05:18:31;;;;;;;6.57;2.58;;;9.70;99.90;;;;;;5081428;28;20051;-42
2023/05/27 05:20:57;;;;;;;7.50;3.38;;;9.70;99.90;;;;;;5082795;28;20024;-38
2023/05/27 05:23:22;;;;;;;6.65;2.35;;;9.70;99.90;;;;;;5081514;28;20024;-42
2023/05/27 05:25:54;;;;;;;6.75;2.55;;;9.80;99.90;;;;;;5081241;28;20425;-41
2023/05/27 05:28:23;;;;;;;8.10;3.20;;;9.80;99.90;;;;;;5081107;28;20024;-41
2023/05/27 05:30:48;;;;;;;8.30;2.97;;;9.80;99.90;;;;;;5081059;28;20028;-42
2023/05/27 05:33:14;;;;;;;6.82;2.30;;;9.90;99.90;;;;;;5081531;28;20028;-41
2023/05/27 05:35:39;;;;;;;7.18;2.90;;;9.90;99.90;;;;;;5080394;28;20036;-42
2023/05/27 05:38:05;;;;;;;7.28;2.80;;;9.90;99.90;;;;;;5081648;28;20031;-41
2023/05/27 05:40:30;;;;;;;6.85;2.60;;;10.00;99.90;;;;;;5081084;28;20020;-41
2023/05/27 05:42:56;;;;;;;8.93;3.03;;;10.00;99.90;;;;;;5081003;28;20016;-41
2023/05/27 05:45:21;;;;;;;11.05;3.20;;;10.10;99.90;;;;;;5081387;28;20070;-42
2023/05/27 05:47:47;;;;;;;8.68;2.85;;;10.10;99.90;;;;;;5081619;28;20076;-40
2023/05/27 05:50:12;;;;;;;5.65;2.40;;;10.20;99.90;;;;;;5080118;28;20032;-41
2023/05/27 05:52:38;;;;;;;10.80;2.80;;;10.20;99.90;;;;;;5079094;28;20028;-41
2023/05/27 05:55:05;;;;;;;13.68;3.33;;;10.30;99.90;;;;;;5080343;28;20020;-39
2023/05/27 05:57:32;;;;;;;9.25;3.05;;;10.30;99.90;;;;;;5078953;28;20143;-42
2023/05/27 06:00:01;;;;;;;10.00;2.78;;;10.40;99.90;;;;;;5080781;28;20091;-39
2023/05/27 06:02:29;;;;;;;8.35;3.08;;;10.40;99.90;;;;;;5080933;28;20027;-41
2023/05/27 06:04:55;;;;;;;10.50;3.35;;;10.50;99.90;;;;;;5081337;28;20068;-41
2023/05/27 06:07:21;;;;;;;8.07;3.10;;;10.60;99.90;;;;;;5081467;28;20622;-41
2023/05/27 06:09:46;;;;;;;7.13;2.40;;;10.60;99.90;;;;;;5080135;28;20073;-41
2023/05/27 06:12:12;;;;;;;6.97;2.78;;;10.70;99.90;;;;;;5097703;28;20042;-40
2023/05/27 06:14:37;;;;;;;8.07;2.47;;;10.70;99.90;;;;;;5084364;28;20028;-42
2023/05/27 06:17:03;;;;;;;9.15;2.63;;;10.80;99.90;;;;;;5079134;28;20131;-41
2023/05/27 06:19:29;;;;;;;9.32;2.78;;;10.90;99.90;;;;;;5079779;28;20028;-43
2023/05/27 06:21:54;;;;;;;8.30;2.67;;;10.90;99.90;;;;;;5080537;28;20464;-41
2023/05/27 06:24:20;;;;;;;8.90;2.90;;;11.00;99.90;;;;;;5079595;28;20028;-41
2023/05/27 06:26:45;;;;;;;8.88;3.10;;;11.00;99.90;;;;;;5080186;28;20036;-42
2023/05/27 06:29:12;;;;;;;9.65;2.70;;;11.10;99.90;;;;;;5081070;28;20031;-40
2023/05/27 06:31:37;;;;;;;10.27;3.10;;;11.20;99.90;;;;;;5083527;28;20200;-42
2023/05/27 06:34:03;;;;;;;9.52;2.75;;;11.20;99.90;;;;;;5084818;28;20768;-42
2023/05/27 06:36:28;;;;;;;9.82;2.90;;;11.30;99.90;;;;;;5087410;28;20104;-44
2023/05/27 06:38:54;;;;;;;11.05;3.33;;;11.40;99.90;;;;;;5084040;28;20157;-42
2023/05/27 06:41:20;;;;;;;7.05;2.80;;;11.40;99.90;;;;;;5084969;28;20065;-41
2023/05/27 06:43:45;;;;;;;9.55;3.05;;;11.50;99.90;;;;;;5085215;28;20589;-42
2023/05/27 06:46:11;;;;;;;9.30;2.33;;;11.50;99.90;;;;;;5083195;28;20032;-40
2023/05/27 06:48:36;;;;;;;6.47;2.50;;;11.60;99.90;;;;;;5083669;28;20499;-41
2023/05/27 06:51:02;;;;;;;6.20;2.53;;;11.60;99.90;;;;;;5084151;28;20020;-41
2023/05/27 06:53:28;;;;;;;8.73;2.70;;;11.70;99.90;;;;;;5074322;28;20042;-41
2023/05/27 06:55:53;;;;;;;9.27;3.00;;;11.80;99.90;;;;;;5083442;28;20031;-41
2023/05/27 06:58:19;;;;;;;7.78;2.83;;;11.80;99.90;;;;;;5083282;28;20040;-40
2023/05/27 07:00:45;;;;;;;7.15;2.80;;;11.90;99.90;;;;;;5081252;28;20050;-41
2023/05/27 07:03:10;;;;;;;9.57;2.90;;;12.00;99.90;;;;;;5082585;28;20148;-42
2023/05/27 07:05:36;;;;;;;7.57;2.70;;;12.10;99.90;;;;;;5081491;28;20333;-41
2023/05/27 07:08:01;;;;;;;7.03;2.85;;;12.10;99.90;;;;;;5082582;28;20043;-41
2023/05/27 07:10:27;;;;;;;8.55;2.75;;;12.10;99.90;;;;;;5082212;28;20028;-41
2023/05/27 07:12:52;;;;;;;7.03;2.60;;;12.20;99.90;;;;;;5083002;28;20063;-42
2023/05/27 07:15:20;;;;;;;6.88;2.80;;;12.20;99.90;;;;;;5082757;28;20396;-41
2023/05/27 07:17:46;;;;;;;7.50;2.67;;;12.30;99.90;;;;;;5082767;28;20028;-40
2023/05/27 07:20:12;;;;;;;6.40;2.63;;;12.30;99.90;;;;;;5082744;28;20040;-42
2023/05/27 07:22:37;;;;;;;5.93;2.67;;;12.40;99.90;;;;;;5082221;28;20551;-39
2023/05/27 07:25:03;;;;;;;10.18;3.10;;;12.40;99.90;;;;;;5083719;28;20039;-41
2023/05/27 07:27:29;;;;;;;8.23;2.92;;;12.50;99.90;;;;;;5081847;28;20047;-41
2023/05/27 07:29:55;;;;;;;5.43;2.80;;;12.60;99.90;;;;;;5083584;28;20028;-42
2023/05/27 07:32:22;;;;;;;7.18;3.30;;;12.60;99.90;;;;;;5082967;28;20679;-39
2023/05/27 07:34:47;;;;;;;7.00;2.75;;;12.70;99.90;;;;;;5082106;28;20608;-41
2023/05/27 07:37:13;;;;;;;8.27;2.90;;;12.80;99.90;;;;;;5082270;28;20028;-42
2023/05/27 07:39:38;;;;;;;7.70;2.83;;;12.80;99.90;;;;;;5082275;28;20573;-39
2023/05/27 07:42:07;;;;;;;10.45;3.20;;;12.90;99.90;;;;;;5080225;28;20020;-42
2023/05/27 07:44:32;;;;;;;8.75;3.20;;;12.90;99.90;;;;;;5082831;28;20039;-42
2023/05/27 07:46:58;;;;;;;8.13;2.60;;;13.00;99.90;;;;;;5083027;28;20020;-42
2023/05/27 07:49:25;;;;;;;6.65;2.78;;;13.10;99.90;;;;;;5080895;28;20024;-39
2023/05/27 07:51:50;;;;;;;8.98;3.05;;;13.10;99.90;;;;;;5082086;28;20784;-42
2023/05/27 07:54:16;;;;;;;9.95;3.58;;;13.20;99.90;;;;;;5083644;28;20024;-42
2023/05/27 07:56:42;;;;;;;8.02;3.45;;;13.20;99.90;;;;;;5081725;28;20145;-42
2023/05/27 07:59:07;;;;;;;6.75;2.95;;;13.30;99.90;;;;;;5083305;28;20020;-41
2023/05/27 08:01:33;;;;;;;9.60;3.50;;;13.40;99.90;;;;;;5082549;28;20747;-42
2023/05/27 08:03:59;;;;;;;6.30;2.88;;;13.40;99.90;;;;;;5081788;28;20024;-41
2023/05/27 08:06:25;;;;;;;8.43;3.05;;;13.50;99.90;;;;;;5082420;28;20020;-40
2023/05/27 08:08:50;;;;;;;8.50;3.08;;;13.60;99.90;;;;;;5081804;28;20470;-41
2023/05/27 08:11:16;;;;;;;8.75;2.78;;;13.60;99.90;;;;;;5081090;28;20730;-43
2023/05/27 08:13:42;;;;;;;11.10;3.03;;;13.70;99.90;;;;;;5081630;28;20820;-42
2023/05/27 08:16:08;;;;;;;13.82;3.92;;;13.80;99.90;;;;;;5081427;28;20420;-41
2023/05/27 08:18:35;;;;;;;8.63;3.83;;;13.90;99.90;;;;;;5081220;28;20152;-40
2023/05/27 08:21:03;;;;;;;7.82;3.25;;;13.90;99.90;;;;;;5082887;28;20085;-41
2023/05/27 08:23:32;;;;;;;10.45;3.20;;;13.90;99.90;;;;;;5080453;28;20119;-42
2023/05/27 08:25:57;;;;;;;10.68;3.40;;;14.00;99.90;;;;;;5082402;28;20031;-41
2023/05/27 08:28:23;;;;;;;9.82;3.45;;;14.00;99.90;;;;;;5081673;28;20024;-40
2023/05/27 08:30:48;;;;;;;6.32;3.28;;;14.10;99.90;;;;;;5081648;28;20058;-42
2023/05/27 08:33:14;;;;;;;9.25;3.25;;;14.20;99.90;;;;;;5081881;28;20035;-39
2023/05/27 08:35:40;;;;;;;10.23;3.85;;;14.20;99.90;;;;;;5081730;28;20020;-41
2023/05/27 08:38:06;;;;;;;9.60;4.03;;;14.20;99.90;;;;;;5082536;28;20032;-40
2023/05/27 08:40:31;;;;;;;7.75;3.35;;;14.20;99.90;;;;;;5081884;28;20093;-40
2023/05/27 08:42:57;;;;;;;9.23;3.25;;;14.30;99.90;;;;;;5082113;28;20055;-42
2023/05/27 08:45:23;;;;;;;7.93;3.33;;;14.40;99.90;;;;;;5081107;28;20089;-42
2023/05/27 08:47:49;;;;;;;9.07;3.20;;;14.50;99.90;;;;;;5081936;28;20028;-42
2023/05/27 08:50:15;;;;;;;11.10;3.78;;;14.50;99.90;;;;;;5081234;28;20464;-44
2023/05/27 08:52:51;;;;;;;10.10;3.67;;;14.60;99.90;;;;;;5080152;28;20027;-42
2023/05/27 08:55:21;;;;;;;7.53;3.50;;;14.70;99.90;;;;;;5081667;28;20475;-43
2023/05/27 08:57:57;;;;;;;7.90;3.33;;;14.70;99.90;;;;;;5094785;28;20507;-43
2023/05/27 09:00:23;;;;;;;7.55;3.47;;;14.80;99.90;;;;;;5083676;28;20024;-42
2023/05/27 09:02:49;;;;;;;7.38;3.78;;;14.90;99.90;;;;;;5062299;28;20083;-41
2023/05/27 09:05:19;;;;;;;8.48;3.60;;;14.90;99.90;;;;;;5075838;28;20440;-41
2023/05/27 09:07:45;;;;;;;9.85;3.70;;;15.00;99.90;;;;;;5081532;28;20068;-41
2023/05/27 09:10:14;;;;;;;9.35;4.00;;;15.00;99.90;;;;;;5082472;28;20023;-40
2023/05/27 09:12:43;;;;;;;8.07;3.42;;;15.00;99.90;;;;;;5080417;28;20032;-42
2023/05/27 09:15:10;;;;;;;10.30;4.00;;;15.10;99.90;;;;;;5081709;28;20065;-42
2023/05/27 09:17:43;;;;;;;8.82;3.90;;;15.20;99.90;;;;;;5080655;28;20038;-42
2023/05/27 09:20:10;;;;;;;9.93;3.75;;;15.20;99.90;;;;;;5080091;28;20502;-42
2023/05/27 09:22:37;;;;;;;7.20;3.58;;;15.30;99.90;;;;;;5080509;28;20035;-41
2023/05/27 09:25:03;;;;;;;8.40;3.65;;;15.40;99.90;;;;;;5081214;28;20061;-40
2023/05/27 09:27:30;;;;;;;8.65;3.35;;;15.40;99.90;;;;;;5079513;28;20031;-41
2023/05/27 09:30:08;;;;;;;7.65;3.10;;;15.50;99.90;;;;;;5081530;28;20016;-40
2023/05/27 09:32:34;;;;;;;8.38;3.88;;;15.50;99.90;;;;;;5069974;28;20114;-39
2023/05/27 09:35:02;;;;;;;10.18;3.95;;;15.60;99.90;;;;;;5080333;28;20042;-40
2023/05/27 09:37:32;;;;;;;8.38;3.33;;;15.70;99.90;;;;;;5080520;28;20024;-42
2023/05/27 09:39:59;;;;;;;8.57;4.38;;;15.80;99.90;;;;;;5080097;28;20770;-40
2023/05/27 09:42:25;;;;;;;9.68;4.07;;;15.80;99.90;;;;;;5079893;28;20020;-42
2023/05/27 09:44:50;;;;;;;12.43;4.60;;;15.90;99.90;;;;;;5081073;28;20429;-42
2023/05/27 09:47:22;;;;;;;8.85;3.80;;;16.00;99.90;;;;;;5080968;28;20024;-42
2023/05/27 09:49:51;;;;;;;8.52;3.53;;;16.00;99.90;;;;;;5080939;28;20127;-41
2023/05/27 09:52:20;;;;;;;8.20;3.65;;;16.00;99.90;;;;;;5079212;28;20051;-42
2023/05/27 09:54:47;;;;;;;11.07;3.75;;;16.10;99.90;;;;;;5060204;28;20078;-41
2023/05/27 09:57:13;;;;;;;9.13;3.20;;;16.10;99.90;;;;;;5077423;28;20086;-41
2023/05/27 09:59:39;;;;;;;8.70;3.53;;;16.20;99.90;;;;;;5080636;28;20115;-41
2023/05/27 10:02:07;;;;;;;8.88;3.38;;;16.20;99.90;;;;;;5079683;28;20043;-41
2023/05/27 10:04:33;;;;;;;8.02;3.40;;;16.30;99.90;;;;;;5084291;28;20028;-43
2023/05/27 10:06:59;;;;;;;11.73;3.92;;;16.30;99.90;;;;;;5085528;28;20550;-42
2023/05/27 10:09:28;;;;;;;8.10;3.58;;;16.40;99.90;;;;;;5084520;28;20512;-42
2023/05/27 10:11:54;;;;;;;7.60;3.38;;;16.50;99.90;;;;;;5085643;28;20020;-42
2023/05/27 10:14:20;;;;;;;5.53;3.00;;;16.50;99.90;;;;;;5085533;28;20120;-40
2023/05/27 10:16:55;;;;;;;9.27;3.55;;;16.60;99.90;;;;;;5083421;28;20028;-41
2023/05/27 10:19:21;;;;;;;8.65;4.22;;;16.70;99.90;;;;;;5083675;28;20231;-41
2023/05/27 10:21:46;;;;;;;10.30;3.70;;;16.80;99.90;;;;;;5085098;28;20617;-42
2023/05/27 10:24:12;;;;;;;7.47;3.28;;;16.90;99.90;;;;;;5083756;28;20467;-41
2023/05/27 10:26:43;;;;;;;11.95;3.47;;;16.90;99.90;;;;;;5083364;28;20024;-40
2023/05/27 10:29:13;;;;;;;8.68;3.60;;;17.00;99.90;;;;;;5083589;28;20573;-43
2023/05/27 10:31:52;;;;;;;7.47;3.00;;;17.00;99.90;;;;;;5082816;28;20119;-42
2023/05/27 10:34:18;;;;;;;6.32;3.50;;;17.00;99.90;;;;;;5081748;28;20371;-43
2023/05/27 10:36:45;;;;;;;6.30;2.90;;;17.10;99.90;;;;;;5082743;28;20489;-42
2023/05/27 10:39:16;;;;;;;6.10;2.75;;;17.10;99.90;;;;;;5084057;28;20102;-44
2023/05/27 10:41:52;;;;;;;6.82;2.92;;;17.30;99.90;;;;;;5084171;28;20034;-42
2023/05/27 10:44:29;;;;;;;5.10;2.78;;;17.40;99.90;;;;;;5082861;28;20023;-43
2023/05/27 10:47:04;;;;;;;7.00;2.55;;;17.40;99.90;;;;;;5084752;28;20024;-43
2023/05/27 10:49:38;;;;;;;5.80;2.60;;;17.50;99.90;;;;;;5083122;28;20499;-40
2023/05/27 10:52:15;;;;;;;7.90;3.05;;;17.50;99.90;;;;;;5084009;28;20031;-42
2023/05/27 10:54:42;;;;;;;8.65;3.25;;;17.50;99.90;;;;;;5083638;28;20032;-42
2023/05/27 10:57:08;;;;;;;6.93;3.60;;;17.60;99.90;;;;;;5084703;28;20048;-42
2023/05/27 10:59:42;;;;;;;8.55;3.22;;;17.80;99.90;;;;;;5083384;28;20073;-42
2023/05/27 11:02:07;;;;;;;8.13;3.28;;;17.90;99.90;;;;;;5084627;28;20038;-41
2023/05/27 11:04:36;;;;;;;7.05;2.47;;;17.90;99.90;;;;;;5082524;28;20032;-42
2023/05/27 11:07:03;;;;;;;6.18;3.00;;;18.00;99.90;;;;;;5083678;28;20036;-40
2023/05/27 11:09:29;;;;;;;9.30;2.58;;;18.10;99.90;;;;;;5083659;28;20028;-40
2023/05/27 11:12:05;;;;;;;8.18;3.33;;;18.10;99.90;;;;;;5084024;28;20024;-42
2023/05/27 11:14:30;;;;;;;6.28;3.15;;;18.00;99.90;;;;;;5084033;28;20039;-41
2023/05/27 11:16:56;;;;;;;7.07;2.65;;;18.10;99.90;;;;;;5083821;28;20028;-42
2023/05/27 11:19:24;;;;;;;7.40;2.88;;;18.00;99.90;;;;;;5083466;28;20709;-42
2023/05/27 11:21:50;;;;;;;8.27;2.88;;;18.00;99.90;;;;;;5084316;28;20016;-41
2023/05/27 11:24:20;;;;;;;8.00;3.20;;;18.00;99.90;;;;;;5084135;28;20532;-39
2023/05/27 11:26:46;;;;;;;9.15;2.83;;;18.10;99.90;;;;;;5083125;28;20540;-42
2023/05/27 11:29:13;;;;;;;6.13;3.13;;;18.10;99.90;;;;;;5083672;28;20657;-42
2023/05/27 11:31:42;;;;;;;7.85;2.92;;;18.20;99.90;;;;;;5083667;28;20539;-41
2023/05/27 11:34:18;;;;;;;7.10;2.80;;;18.20;99.90;;;;;;5082454;28;20082;-42
2023/05/27 11:36:49;;;;;;;5.88;3.05;;;18.30;99.90;;;;;;5072790;28;20028;-42
2023/05/27 11:39:18;;;;;;;10.63;3.17;;;18.30;99.90;;;;;;5083389;28;20032;-42
2023/05/27 11:41:53;;;;;;;7.63;2.80;;;18.50;99.90;;;;;;5083293;28;20020;-42
2023/05/27 11:44:21;;;;;;;5.22;2.50;;;18.60;99.80;;;;;;5083604;28;20682;-43
2023/05/27 11:46:47;;;;;;;7.18;2.90;;;18.60;99.80;;;;;;5083495;28;20105;-42
2023/05/27 11:49:17;;;;;;;6.32;2.65;;;18.60;99.70;;;;;;5082227;28;20059;-41
2023/05/27 11:51:45;;;;;;;6.80;2.88;;;18.60;99.70;;;;;;5080181;28;20020;-42
2023/05/27 11:54:22;;;;;;;7.47;2.33;;;18.60;99.60;;;;;;5083012;28;20027;-42
2023/05/27 11:56:48;;;;;;;6.22;2.50;;;18.70;99.50;;;;;;5082128;28;20051;-42
2023/05/27 11:59:14;;;;;;;7.45;2.83;;;18.70;99.30;;;;;;5083612;28;20028;-42
2023/05/27 12:01:43;;;;;;;6.38;2.80;;;18.70;98.80;;;;;;5081645;28;20020;-42
2023/05/27 12:04:09;;;;;;;6.93;2.97;;;18.80;98.80;;;;;;5083766;28;20358;-43
2023/05/27 12:06:37;;;;;;;5.82;2.78;;;18.90;98.70;;;;;;5082705;28;20031;-40
2023/05/27 12:09:08;;;;;;;5.88;2.85;;;18.90;98.60;;;;;;5061536;28;20028;-41
2023/05/27 12:11:34;;;;;;;6.15;2.80;;;19.00;98.50;;;;;;5074986;28;20586;-42
2023/05/27 12:14:00;;;;;;;8.02;3.03;;;19.00;98.30;;;;;;5081561;28;20051;-41
2023/05/27 12:16:25;;;;;;;9.05;3.22;;;19.00;98.10;;;;;;5079559;28;20150;-41
2023/05/27 12:19:00;;;;;;;6.55;2.70;;;19.00;97.80;;;;;;5081882;28;20289;-43
2023/05/27 12:21:26;;;;;;;5.30;2.83;;;19.00;97.80;;;;;;5081946;28;20076;-42
2023/05/27 12:23:52;;;;;;;4.82;2.67;;;19.00;97.80;;;;;;5082369;28;20028;-42
2023/05/27 12:26:20;;;;;;;6.93;2.85;;;19.10;97.80;;;;;;5082401;28;20161;-42
2023/05/27 12:28:46;;;;;;;7.78;2.92;;;19.10;97.50;;;;;;5081637;28;20024;-42
2023/05/27 12:31:11;;;;;;;8.98;3.03;;;19.20;97.20;;;;;;5081618;28;20039;-42
2023/05/27 12:33:37;;;;;;;5.80;2.33;;;19.20;97.30;;;;;;5082769;28;20043;-42
2023/05/27 12:36:05;;;;;;;6.45;2.85;;;19.20;96.90;;;;;;5083751;28;20024;-42
2023/05/27 12:38:33;;;;;;;6.43;2.63;;;19.20;96.80;;;;;;5081969;28;20024;-42
2023/05/27 12:40:59;;;;;;;4.85;2.63;;;19.30;96.70;;;;;;5082415;28;20058;-42
2023/05/27 12:43:24;;;;;;;6.35;2.90;;;19.30;96.60;;;;;;5080485;28;20028;-43
2023/05/27 12:45:51;;;;;;;5.63;2.72;;;19.40;96.50;;;;;;5082177;28;20047;-43
2023/05/27 12:48:17;;;;;;;7.53;2.90;;;19.40;96.30;;;;;;5081647;28;20027;-44